createdAt,value
2022-09-06T00:02:22.067Z,98119.63
2022-09-06T00:04:50.608Z,98123.91
2022-09-06T00:07:18.582Z,98115.22
2022-09-06T00:09:46.830Z,98113.59
2022-09-06T00:12:16.216Z,98117.78
2022-09-06T00:14:44.218Z,98111.81
2022-09-06T00:17:12.597Z,98106.00
2022-09-06T00:19:40.628Z,98111.13
2022-09-06T00:22:08.520Z,98099.84
2022-09-06T00:24:37.259Z,98110.28
2022-09-06T00:27:05.693Z,98110.13
2022-09-06T00:29:35.361Z,98109.13
2022-09-06T00:32:03.874Z,98098.00
2022-09-06T00:34:32.078Z,98097.03
2022-09-06T00:37:00.126Z,98102.84
2022-09-06T00:39:28.580Z,98096.56
2022-09-06T00:41:56.967Z,98097.38
2022-09-06T00:44:24.940Z,98100.09
2022-09-06T00:46:55.452Z,98097.19
2022-09-06T00:49:29.316Z,98101.53
2022-09-06T00:52:02.789Z,98099.66
2022-09-06T00:54:31.194Z,98094.75
2022-09-06T00:56:59.449Z,98090.72
2022-09-06T00:59:28.438Z,98092.81
2022-09-06T01:01:58.202Z,98091.84
2022-09-06T01:04:26.770Z,98087.16
2022-09-06T01:07:04.254Z,98091.31
2022-09-06T01:09:47.714Z,98104.16
2022-09-06T01:12:28.342Z,98100.03
2022-09-06T01:15:06.974Z,98101.75
2022-09-06T01:17:45.045Z,98101.75
2022-09-06T01:20:30.292Z,98093.53
2022-09-06T01:23:18.421Z,98092.25
2022-09-06T01:25:54.777Z,98106.72
2022-09-06T01:28:42.090Z,98102.56
2022-09-06T01:31:25.663Z,98094.16
2022-09-06T01:34:09.062Z,98099.94
2022-09-06T01:36:54.403Z,98101.69
2022-09-06T01:39:32.628Z,98103.44
2022-09-06T01:42:05.904Z,98116.78
2022-09-06T01:44:36.291Z,98110.69
2022-09-06T01:47:12.261Z,98114.25
2022-09-06T01:49:48.197Z,98117.47
2022-09-06T01:52:19.480Z,98124.25
2022-09-06T01:54:56.758Z,98122.00
2022-09-06T01:57:33.984Z,98137.19
2022-09-06T02:00:09.243Z,98134.66
2022-09-06T02:02:47.899Z,98128.06
2022-09-06T02:05:21.660Z,98129.50
2022-09-06T02:07:50.775Z,98125.63
2022-09-06T02:10:24.857Z,98127.75
2022-09-06T02:12:55.250Z,98123.47
2022-09-06T02:15:27.438Z,98115.09
2022-09-06T02:17:58.470Z,98118.78
2022-09-06T02:20:28.697Z,98105.97
2022-09-06T02:22:57.775Z,98124.19
2022-09-06T02:25:28.141Z,98113.56
2022-09-06T02:27:56.667Z,98118.72
2022-09-06T02:30:26.477Z,98121.31
2022-09-06T02:32:59.134Z,98173.50
2022-09-06T02:35:27.466Z,98262.88
2022-09-06T02:37:56.397Z,98235.94
2022-09-06T02:40:24.628Z,98232.50
2022-09-06T02:42:54.049Z,98240.38
2022-09-06T02:45:22.044Z,98237.13
2022-09-06T02:47:51.352Z,98213.06
2022-09-06T02:50:19.243Z,98215.72
2022-09-06T02:52:47.191Z,98214.41
2022-09-06T02:55:15.562Z,98213.41
2022-09-06T02:57:43.864Z,98211.28
2022-09-06T03:00:12.852Z,98213.97
2022-09-06T03:02:40.840Z,98218.03
2022-09-06T03:05:11.173Z,98208.41
2022-09-06T03:07:39.190Z,98218.94
2022-09-06T03:10:07.979Z,98226.25
2022-09-06T03:12:35.906Z,98233.53
2022-09-06T03:15:04.246Z,98223.63
2022-09-06T03:17:32.362Z,98221.59
2022-09-06T03:20:00.784Z,98188.00
2022-09-06T03:22:30.042Z,98169.59
2022-09-06T03:24:58.241Z,98148.56
2022-09-06T03:27:26.171Z,98132.41
2022-09-06T03:29:54.187Z,98138.25
2022-09-06T03:32:22.417Z,98155.84
2022-09-06T03:34:50.406Z,98138.34
2022-09-06T03:37:19.476Z,98134.03
2022-09-06T03:39:48.808Z,98123.00
2022-09-06T03:42:16.856Z,98116.63
2022-09-06T03:44:44.783Z,98112.09
2022-09-06T03:47:15.561Z,98113.09
2022-09-06T03:49:46.858Z,98120.09
2022-09-06T03:52:15.333Z,98137.88
2022-09-06T03:54:43.202Z,98143.72
2022-09-06T03:57:12.488Z,98149.41
2022-09-06T03:59:40.444Z,98152.53
2022-09-06T04:02:08.502Z,98160.88
2022-09-06T04:04:36.632Z,98177.88
2022-09-06T04:07:04.620Z,98172.53
2022-09-06T04:09:32.643Z,98167.66
2022-09-06T04:12:00.786Z,98160.41
2022-09-06T04:14:30.159Z,98163.44
2022-09-06T04:16:58.394Z,98156.97
2022-09-06T04:19:26.424Z,98154.66
2022-09-06T04:21:54.384Z,98148.88
2022-09-06T04:24:22.407Z,98147.38
2022-09-06T04:26:50.370Z,98141.19
2022-09-06T04:29:18.329Z,98139.16
2022-09-06T04:31:47.796Z,98145.94
2022-09-06T04:34:16.449Z,98151.69
2022-09-06T04:36:48.135Z,98158.56
2022-09-06T04:39:16.449Z,98176.84
2022-09-06T04:41:44.380Z,98194.22
2022-09-06T04:44:12.355Z,98203.91
2022-09-06T04:46:42.758Z,98200.63
2022-09-06T04:49:12.084Z,98185.13
2022-09-06T04:51:40.315Z,98164.22
2022-09-06T04:54:08.278Z,98157.16
2022-09-06T04:56:36.630Z,98156.56
2022-09-06T04:59:04.744Z,98149.66
2022-09-06T05:01:32.923Z,98153.31
2022-09-06T05:04:01.255Z,98149.50
2022-09-06T05:06:32.118Z,98148.06
2022-09-06T05:09:00.102Z,98138.50
2022-09-06T05:11:28.136Z,98139.22
2022-09-06T05:13:56.110Z,98142.38
2022-09-06T05:16:24.185Z,98150.53
2022-09-06T05:18:52.218Z,98155.41
2022-09-06T05:21:20.217Z,98161.28
2022-09-06T05:23:49.825Z,98166.34
2022-09-06T05:26:17.892Z,98171.09
2022-09-06T05:28:45.932Z,98162.63
2022-09-06T05:31:28.497Z,98165.03
2022-09-06T05:33:57.646Z,98163.44
2022-09-06T05:36:26.192Z,98157.66
2022-09-06T05:38:56.867Z,98160.31
2022-09-06T05:41:25.574Z,98165.16
2022-09-06T05:43:53.842Z,98160.50
2022-09-06T05:46:22.098Z,98162.63
2022-09-06T05:48:54.494Z,98165.56
2022-09-06T05:51:22.459Z,98174.78
2022-09-06T05:53:50.474Z,98172.53
2022-09-06T05:56:22.599Z,98168.72
2022-09-06T05:58:54.335Z,98167.59
2022-09-06T06:01:23.905Z,98177.91
2022-09-06T06:03:52.857Z,98176.00
2022-09-06T06:06:21.785Z,98180.63
2022-09-06T06:08:50.031Z,98176.50
2022-09-06T06:11:19.535Z,98174.06
2022-09-06T06:13:47.538Z,98175.69
2022-09-06T06:16:16.922Z,98167.38
2022-09-06T06:18:51.278Z,98179.28
2022-09-06T06:21:22.229Z,98188.19
2022-09-06T06:23:52.237Z,98180.50
2022-09-06T06:26:21.796Z,98177.78
2022-09-06T06:28:49.962Z,98184.78
2022-09-06T06:31:19.416Z,98187.22
2022-09-06T06:33:47.457Z,98187.09
2022-09-06T06:36:23.334Z,98187.81
2022-09-06T06:38:54.515Z,98185.28
2022-09-06T06:41:25.337Z,98182.34
2022-09-06T06:43:54.112Z,98178.38
2022-09-06T06:46:22.980Z,98187.28
2022-09-06T06:48:54.729Z,98184.94
2022-09-06T06:51:25.844Z,98189.34
2022-09-06T06:53:56.311Z,98191.94
2022-09-06T06:56:27.367Z,98198.41
2022-09-06T06:58:57.526Z,98205.59
2022-09-06T07:01:27.034Z,98201.63
2022-09-06T07:03:55.501Z,98204.16
2022-09-06T07:09:13.773Z,98205.78
2022-09-06T07:11:44.517Z,98195.47
2022-09-06T07:14:14.584Z,98188.78
2022-09-06T07:16:42.719Z,98193.66
2022-09-06T07:22:02.887Z,98185.44
2022-09-06T07:24:36.222Z,98182.91
2022-09-06T07:29:53.577Z,98181.66
2022-09-06T07:32:21.546Z,98178.59
2022-09-06T07:34:49.458Z,98187.78
2022-09-06T07:37:17.486Z,98173.59
2022-09-06T07:39:45.703Z,98174.28
2022-09-06T07:42:16.288Z,98177.69
2022-09-06T07:44:44.610Z,98184.09
2022-09-06T07:53:14.844Z,98189.09
2022-09-06T07:55:43.672Z,98172.66
2022-09-06T07:58:13.046Z,98190.53
2022-09-06T08:00:41.624Z,98180.88
2022-09-06T08:03:09.833Z,98194.59
2022-09-06T08:11:17.918Z,98179.00
2022-09-06T08:13:50.622Z,98178.47
2022-09-06T08:16:20.140Z,98172.78
2022-09-06T08:18:51.899Z,98162.75
2022-09-06T08:21:20.324Z,98159.59
2022-09-06T08:23:49.744Z,98159.78
2022-09-06T08:26:21.071Z,98164.59
2022-09-06T08:28:54.381Z,98159.56
2022-09-06T08:31:22.451Z,98163.34
2022-09-06T08:33:50.644Z,98153.25
2022-09-06T08:36:19.013Z,98153.28
2022-09-06T08:38:46.958Z,98156.84
2022-09-06T08:41:24.294Z,98156.00
2022-09-06T08:46:49.426Z,98158.09
2022-09-06T08:49:17.737Z,98158.88
2022-09-06T08:52:13.417Z,98158.28
2022-09-06T08:54:42.557Z,98160.69
2022-09-06T08:57:15.367Z,98156.88
2022-09-06T08:59:44.791Z,98163.31
2022-09-06T09:02:14.974Z,98156.47
2022-09-06T09:04:45.946Z,98152.00
2022-09-06T09:07:31.039Z,98142.94
2022-09-06T09:09:59.811Z,98148.97
2022-09-06T09:12:29.357Z,98147.09
2022-09-06T09:15:03.442Z,98147.47
2022-09-06T09:17:32.769Z,98142.75
2022-09-06T09:20:00.678Z,98149.88
2022-09-06T09:22:29.327Z,98146.84
2022-09-06T09:24:59.586Z,98141.13
2022-09-06T09:27:29.155Z,98148.00
2022-09-06T09:32:51.953Z,98143.72
2022-09-06T09:35:27.980Z,98146.34
2022-09-06T09:38:09.501Z,98144.66
2022-09-06T09:40:41.935Z,98147.66
2022-09-06T09:43:15.518Z,98141.81
2022-09-06T09:45:45.264Z,98144.97
2022-09-06T09:48:22.431Z,98138.28
2022-09-06T09:50:50.354Z,98138.19
2022-09-06T09:53:21.069Z,98138.53
2022-09-06T09:55:49.501Z,98142.81
2022-09-06T09:58:21.977Z,98142.72
2022-09-06T10:01:10.685Z,98146.47
2022-09-06T10:09:19.824Z,98139.50
2022-09-06T10:11:55.815Z,98148.50
2022-09-06T10:14:28.431Z,98147.31
2022-09-06T10:16:58.234Z,98145.91
2022-09-06T10:19:39.725Z,98142.59
2022-09-06T10:22:20.203Z,98137.91
2022-09-06T10:25:08.258Z,98126.28
2022-09-06T10:27:42.529Z,98125.94
2022-09-06T10:30:14.592Z,98131.09
2022-09-06T10:32:48.133Z,98128.69
2022-09-06T10:35:23.987Z,98140.28
2022-09-06T10:38:13.479Z,98126.88
2022-09-06T10:40:48.293Z,98126.06
2022-09-06T10:43:19.762Z,98126.63
2022-09-06T10:45:55.969Z,98120.38
2022-09-06T10:48:28.855Z,98116.34
2022-09-06T10:50:59.286Z,98112.88
2022-09-06T10:53:42.593Z,98117.47
2022-09-06T10:56:12.816Z,98109.22
2022-09-06T11:01:42.943Z,98095.13
2022-09-06T11:04:20.459Z,98092.44
2022-09-06T11:06:52.609Z,98092.09
2022-09-06T11:09:26.664Z,98093.25
2022-09-06T11:12:00.676Z,98092.47
2022-09-06T11:14:28.903Z,98092.31
2022-09-06T11:17:00.753Z,98090.59
2022-09-06T11:19:33.256Z,98082.19
2022-09-06T11:22:29.242Z,98081.97
2022-09-06T11:25:31.663Z,98076.50
2022-09-06T11:28:01.454Z,98080.50
2022-09-06T11:30:30.268Z,98076.78
2022-09-06T11:33:11.627Z,98082.00
2022-09-06T11:35:42.234Z,98083.56
2022-09-06T11:38:22.312Z,98078.31
2022-09-06T11:40:56.082Z,98090.66
2022-09-06T11:43:46.520Z,98090.59
2022-09-06T11:46:48.587Z,98080.66
2022-09-06T11:49:40.063Z,98088.84
2022-09-06T11:52:41.765Z,98090.28
2022-09-06T11:55:13.887Z,98085.03
2022-09-06T11:57:42.806Z,98073.16
2022-09-06T12:00:20.910Z,98077.91
2022-09-06T12:02:49.014Z,98076.16
2022-09-06T12:05:37.425Z,98077.47
2022-09-06T12:08:33.310Z,98076.72
2022-09-06T12:11:18.854Z,98074.81
2022-09-06T12:14:06.134Z,98071.69
2022-09-06T12:17:26.338Z,98064.75
2022-09-06T12:20:06.423Z,98045.44
2022-09-06T12:22:54.569Z,98054.59
2022-09-06T12:25:52.635Z,98046.53
2022-09-06T12:28:46.921Z,98048.91
2022-09-06T12:31:38.434Z,98048.88
2022-09-06T12:34:13.823Z,98044.69
2022-09-06T12:36:55.809Z,98049.66
2022-09-06T12:39:24.396Z,98042.28
2022-09-06T12:41:55.215Z,98060.72
2022-09-06T12:44:30.591Z,98064.81
2022-09-06T12:47:04.613Z,98059.50
2022-09-06T12:49:32.573Z,98062.44
2022-09-06T12:52:12.237Z,98058.31
2022-09-06T12:54:46.733Z,98053.06
2022-09-06T12:57:18.308Z,98052.19
2022-09-06T12:59:53.662Z,98056.56
2022-09-06T13:02:26.594Z,98050.66
2022-09-06T13:04:58.036Z,98043.97
2022-09-06T13:07:27.200Z,98039.06
2022-09-06T13:09:56.529Z,98038.94
2022-09-06T13:12:27.384Z,98044.81
2022-09-06T13:14:58.153Z,98041.19
2022-09-06T13:17:28.537Z,98038.97
2022-09-06T13:19:58.142Z,98038.19
2022-09-06T13:22:44.205Z,98041.22
2022-09-06T13:25:20.569Z,98049.91
2022-09-06T13:27:51.188Z,98049.53
2022-09-06T13:30:38.705Z,98040.72
2022-09-06T13:33:07.957Z,98033.66
2022-09-06T13:35:37.582Z,98043.34
2022-09-06T13:38:33.096Z,98032.88
2022-09-06T13:41:17.088Z,98035.78
2022-09-06T13:43:47.651Z,98039.06
2022-09-06T13:46:17.277Z,98033.69
2022-09-06T13:48:45.385Z,98025.09
2022-09-06T13:51:13.393Z,98020.50
2022-09-06T13:53:41.245Z,98018.09
2022-09-06T13:56:09.447Z,98005.41
2022-09-06T13:58:37.365Z,98003.44
2022-09-06T14:01:08.674Z,98000.69
2022-09-06T14:03:39.260Z,97995.88
2022-09-06T14:06:08.248Z,97995.06
2022-09-06T14:09:02.945Z,97997.69
2022-09-06T14:11:25.588Z,97980.66
2022-09-06T14:13:53.581Z,97985.91
2022-09-06T14:16:21.592Z,97988.22
2022-09-06T14:18:51.993Z,97992.53
2022-09-06T14:21:19.966Z,97990.44
2022-09-06T14:23:51.005Z,97983.31
2022-09-06T14:26:21.057Z,97986.09
2022-09-06T14:28:49.411Z,97979.31
2022-09-06T14:31:18.837Z,97971.38
2022-09-06T14:33:46.721Z,97964.56
2022-09-06T14:36:17.604Z,97961.28
2022-09-06T14:38:46.445Z,97966.72
2022-09-06T14:41:15.581Z,97969.41
2022-09-06T14:43:44.832Z,97979.59
2022-09-06T14:46:14.874Z,97987.81
2022-09-06T14:48:43.749Z,97992.09
2022-09-06T14:51:13.150Z,97989.53
2022-09-06T14:53:43.575Z,97989.38
2022-09-06T14:56:12.829Z,97989.63
2022-09-06T14:58:41.885Z,97993.91
2022-09-06T15:01:13.238Z,97993.72
2022-09-06T15:03:42.811Z,97996.03
2022-09-06T15:06:11.656Z,97993.91
2022-09-06T15:08:39.741Z,97991.78
2022-09-06T15:11:12.726Z,97993.59
2022-09-06T15:13:43.294Z,97996.78
2022-09-06T15:16:12.162Z,97998.31
2022-09-06T15:18:40.073Z,97984.69
2022-09-06T15:21:11.362Z,97981.66
2022-09-06T15:23:39.677Z,97970.88
2022-09-06T15:26:09.915Z,97980.22
2022-09-06T15:28:39.040Z,97978.41
2022-09-06T15:31:08.283Z,97969.63
2022-09-06T15:33:37.697Z,97968.91
2022-09-06T15:36:07.210Z,97967.13
2022-09-06T15:38:36.044Z,97973.81
2022-09-06T15:41:08.402Z,97971.75
2022-09-06T15:43:41.753Z,97973.38
2022-09-06T15:46:10.278Z,97966.06
2022-09-06T15:48:42.443Z,97969.63
2022-09-06T15:51:10.933Z,97961.69
2022-09-06T15:53:38.910Z,97948.53
2022-09-06T15:56:07.400Z,97956.47
2022-09-06T15:58:35.628Z,97958.22
2022-09-06T16:01:07.892Z,97954.44
2022-09-06T16:03:40.391Z,97955.22
2022-09-06T16:06:26.139Z,97954.19
2022-09-06T16:08:59.877Z,97955.78
2022-09-06T16:11:28.271Z,97949.69
2022-09-06T16:13:56.656Z,97942.00
2022-09-06T16:16:26.476Z,97943.28
2022-09-06T16:18:54.413Z,97933.06
2022-09-06T16:21:25.162Z,97940.53
2022-09-06T16:23:57.804Z,97930.66
2022-09-06T16:26:27.670Z,97929.06
2022-09-06T16:28:56.036Z,97930.00
2022-09-06T16:31:26.173Z,97921.16
2022-09-06T16:33:54.432Z,97913.72
2022-09-06T16:36:23.132Z,97905.91
2022-09-06T16:38:51.527Z,97905.44
2022-09-06T16:41:21.186Z,97906.13
2022-09-06T16:43:50.168Z,97914.78
2022-09-06T16:46:18.601Z,97909.50
2022-09-06T16:48:53.192Z,97899.53
2022-09-06T16:51:22.989Z,97902.75
2022-09-06T16:53:51.291Z,97904.00
2022-09-06T16:56:20.641Z,97907.22
2022-09-06T16:58:51.571Z,97906.09
2022-09-06T17:01:19.687Z,97901.25
2022-09-06T17:03:48.294Z,97896.09
2022-09-06T17:06:17.806Z,97898.84
2022-09-06T17:08:46.300Z,97905.16
2022-09-06T17:11:16.030Z,97901.38
2022-09-06T17:13:45.506Z,97892.91
2022-09-06T17:16:31.430Z,97899.22
2022-09-06T17:19:01.333Z,97904.72
2022-09-06T17:21:31.048Z,97903.56
2022-09-06T17:24:04.143Z,97898.75
2022-09-06T17:26:33.242Z,97894.75
2022-09-06T17:29:01.563Z,97892.53
2022-09-06T17:31:30.244Z,97899.41
2022-09-06T17:33:59.660Z,97893.53
2022-09-06T17:36:30.586Z,97891.56
2022-09-06T17:39:07.891Z,97893.63
2022-09-06T17:41:37.850Z,97887.28
2022-09-06T17:44:06.754Z,97894.78
2022-09-06T17:46:34.961Z,97887.75
2022-09-06T17:49:04.709Z,97890.03
2022-09-06T17:51:32.896Z,97896.28
2022-09-06T17:54:01.365Z,97881.34
2022-09-06T17:56:31.158Z,97894.34
2022-09-06T17:59:00.148Z,97898.78
2022-09-06T18:01:30.512Z,97904.28
2022-09-06T18:03:59.462Z,97906.75
2022-09-06T18:06:29.499Z,97901.94
2022-09-06T18:08:59.619Z,97907.47
2022-09-06T18:11:29.504Z,97901.81
2022-09-06T18:14:00.434Z,97913.00
2022-09-06T18:16:29.037Z,97906.22
2022-09-06T18:18:58.649Z,97902.19
2022-09-06T18:21:27.804Z,97897.72
2022-09-06T18:23:55.916Z,97898.84
2022-09-06T18:26:24.606Z,97901.59
2022-09-06T18:28:54.062Z,97899.19
2022-09-06T18:31:25.535Z,97899.97
2022-09-06T18:33:55.652Z,97895.97
2022-09-06T18:36:31.208Z,97896.44
2022-09-06T18:39:02.736Z,97890.66
2022-09-06T18:41:48.358Z,97887.31
2022-09-06T18:44:19.537Z,97886.69
2022-09-06T18:46:48.993Z,97889.63
2022-09-06T18:49:17.522Z,97897.09
2022-09-06T18:51:46.139Z,97893.75
2022-09-06T18:54:14.611Z,97891.84
2022-09-06T18:56:44.837Z,97895.56
2022-09-06T18:59:15.983Z,97908.00
2022-09-06T19:01:44.463Z,97898.50
2022-09-06T19:04:14.329Z,97907.66
2022-09-06T19:06:43.677Z,97903.00
2022-09-06T19:09:14.043Z,97908.16
2022-09-06T19:11:52.795Z,97895.28
2022-09-06T19:14:22.018Z,97907.69
2022-09-06T19:16:51.860Z,97899.81
2022-09-06T19:19:23.467Z,97907.06
2022-09-06T19:21:56.475Z,97904.81
2022-09-06T19:24:28.170Z,97910.13
2022-09-06T19:26:56.725Z,97890.78
2022-09-06T19:29:25.281Z,97892.72
2022-09-06T19:31:54.443Z,97879.50
2022-09-06T19:34:24.290Z,97884.00
2022-09-06T19:36:55.254Z,97881.75
2022-09-06T19:39:23.592Z,97883.38
2022-09-06T19:41:54.355Z,97882.41
2022-09-06T19:44:22.842Z,97878.38
2022-09-06T19:46:51.222Z,97879.84
2022-09-06T19:49:20.523Z,97875.66
2022-09-06T19:51:51.516Z,97886.47
2022-09-06T19:54:19.854Z,97885.38
2022-09-06T19:56:48.233Z,97873.00
2022-09-06T19:59:17.885Z,97869.28
2022-09-06T20:01:47.273Z,97866.06
2022-09-06T20:04:16.045Z,97875.56
2022-09-06T20:06:45.439Z,97882.50
2022-09-06T20:09:15.972Z,97876.72
2022-09-06T20:11:44.481Z,97872.19
2022-09-06T20:14:13.734Z,97882.34
2022-09-06T20:16:43.116Z,97865.28
2022-09-06T20:19:13.055Z,97872.50
2022-09-06T20:21:41.390Z,97871.69
2022-09-06T20:24:09.899Z,97871.06
2022-09-06T20:26:40.421Z,97874.28
2022-09-06T20:29:08.608Z,97865.44
2022-09-06T20:31:37.449Z,97862.06
2022-09-06T20:34:06.560Z,97865.91
2022-09-06T20:36:34.445Z,97871.41
2022-09-06T20:39:02.929Z,97864.78
2022-09-06T20:41:31.161Z,97868.97
2022-09-06T20:44:01.344Z,97863.19
2022-09-06T20:46:31.080Z,97860.13
2022-09-06T20:49:02.004Z,97862.84
2022-09-06T20:51:30.359Z,97871.56
2022-09-06T20:53:59.378Z,97868.50
2022-09-06T20:56:28.966Z,97857.06
2022-09-06T20:58:59.410Z,97873.50
2022-09-06T21:01:30.311Z,97872.19
2022-09-06T21:03:59.598Z,97874.94
2022-09-06T21:06:28.936Z,97882.34
2022-09-06T21:08:57.058Z,97873.66
2022-09-06T21:11:25.265Z,97866.41
2022-09-06T21:13:55.849Z,97872.69
2022-09-06T21:16:25.243Z,97873.81
2022-09-06T21:18:58.373Z,97873.00
2022-09-06T21:21:26.938Z,97878.16
2022-09-06T21:23:55.112Z,97882.84
2022-09-06T21:26:23.462Z,97893.78
2022-09-06T21:28:51.606Z,97893.47
2022-09-06T21:31:22.063Z,97896.34
2022-09-06T21:33:52.581Z,97892.94
2022-09-06T21:36:23.305Z,97896.66
2022-09-06T21:38:53.769Z,97894.25
2022-09-06T21:41:21.994Z,97904.69
2022-09-06T21:43:53.136Z,97897.94
2022-09-06T21:46:22.461Z,97904.69
2022-09-06T21:48:51.810Z,97896.00
2022-09-06T21:51:24.578Z,97894.22
2022-09-06T21:53:53.492Z,97909.38
2022-09-06T21:56:23.867Z,97900.19
2022-09-06T21:58:52.820Z,97904.53
2022-09-06T22:01:20.889Z,97897.94
2022-09-06T22:03:48.836Z,97890.03
2022-09-06T22:06:19.477Z,97884.25
2022-09-06T22:08:49.455Z,97887.63
2022-09-06T22:11:19.117Z,97881.84
2022-09-06T22:13:47.932Z,97876.84
2022-09-06T22:16:17.938Z,97882.31
2022-09-06T22:18:46.197Z,97877.66
2022-09-06T22:21:18.514Z,97880.84
2022-09-06T22:23:52.748Z,97873.78
2022-09-06T22:26:21.430Z,97883.94
2022-09-06T22:28:49.378Z,97885.06
2022-09-06T22:31:17.353Z,97877.00
2022-09-06T22:33:45.646Z,97887.16
2022-09-06T22:36:13.635Z,97883.59
2022-09-06T22:38:41.615Z,97882.13
2022-09-06T22:41:11.349Z,97887.13
2022-09-06T22:43:39.262Z,97902.91
2022-09-06T22:46:08.849Z,97889.06
2022-09-06T22:48:37.406Z,97896.94
2022-09-06T22:51:06.185Z,97901.44
2022-09-06T22:53:36.069Z,97890.34
2022-09-06T22:56:05.085Z,97883.25
2022-09-06T22:58:34.713Z,97880.03
2022-09-06T23:01:08.281Z,97877.78
2022-09-06T23:03:36.944Z,97883.72
2022-09-06T23:06:05.474Z,97874.91
2022-09-06T23:08:33.786Z,97864.91
2022-09-06T23:11:05.703Z,97851.56
2022-09-06T23:13:35.154Z,97852.06
2022-09-06T23:16:04.895Z,97850.94
2022-09-06T23:18:33.390Z,97847.38
2022-09-06T23:21:05.742Z,97857.38
2022-09-06T23:23:33.849Z,97855.75
2022-09-06T23:26:06.601Z,97852.22
2022-09-06T23:28:36.456Z,97840.31
2022-09-06T23:31:05.213Z,97841.25
2022-09-06T23:33:35.147Z,97836.91
2022-09-06T23:36:03.908Z,97826.28
2022-09-06T23:38:33.603Z,97839.16
2022-09-06T23:41:01.916Z,97837.56
2022-09-06T23:43:30.232Z,97847.38
2022-09-06T23:46:00.441Z,97841.59
2022-09-06T23:48:28.726Z,97837.09
2022-09-06T23:50:56.666Z,97847.69
2022-09-06T23:53:24.741Z,97844.31
2022-09-06T23:55:52.804Z,97841.44
2022-09-06T23:58:21.309Z,97841.91
